Time;durP1;ratioP1;P1;durP2;ratioP2;P2;SDS_P1;SDS_P2;PMS_P1;PMS_P2;Temp;Humidity;BMP_temperature;BMP_pressure;BME280_temperature;BME280_humidity;BME280_pressure;Samples;Min_cycle;Max_cycle;Signal;HPM_P1;HPM_P2
2023/08/24 00:01:16;;;;;;;10.68;7.63;;;;;;;15.11;96.40;98816.06;4906583;29;20132;-76
2023/08/24 00:03:45;;;;;;;10.63;8.63;;;;;;;15.11;96.33;98810.69;4914498;28;20505;-74
2023/08/24 00:06:41;;;;;;;11.50;8.00;;;;;;;15.12;96.15;98817.75;4937491;28;20062;-76
2023/08/24 00:09:07;;;;;;;10.18;7.82;;;;;;;15.09;96.17;98812.69;4919871;28;20053;-74
2023/08/24 00:11:32;;;;;;;11.15;7.53;;;;;;;15.08;95.96;98824.44;4917852;28;20088;-74
2023/08/24 00:13:59;;;;;;;12.65;8.52;;;;;;;15.04;95.68;98853.44;4922650;28;20046;-77
2023/08/24 00:16:27;;;;;;;10.85;8.52;;;;;;;15.05;95.68;98839.00;4888934;28;20055;-76
2023/08/24 00:18:54;;;;;;;12.55;8.70;;;;;;;15.06;96.22;98853.28;4920571;28;20107;-77
2023/08/24 00:21:22;;;;;;;12.18;8.40;;;;;;;15.05;96.79;98833.63;4920163;28;20070;-76
2023/08/24 00:23:50;;;;;;;15.32;9.10;;;;;;;15.07;96.65;98841.53;4888086;28;20047;-76
2023/08/24 00:26:19;;;;;;;13.90;8.55;;;;;;;15.05;96.67;98844.38;4888929;28;20061;-76
2023/08/24 00:28:48;;;;;;;11.02;8.13;;;;;;;15.06;96.84;98862.16;4933545;28;20077;-79
2023/08/24 00:31:16;;;;;;;14.35;8.45;;;;;;;15.10;97.00;98851.97;4900585;29;20046;-73
2023/08/24 00:33:42;;;;;;;12.75;8.27;;;;;;;15.10;97.23;98846.59;4918055;29;20039;-80
2023/08/24 00:36:08;;;;;;;11.75;8.63;;;;;;;15.12;97.04;98852.66;4920720;29;20054;-79
2023/08/24 00:38:34;;;;;;;14.40;8.85;;;;;;;15.12;96.91;98844.59;4918517;28;20061;-73
2023/08/24 00:40:59;;;;;;;14.95;9.35;;;;;;;15.13;97.19;98840.88;4905495;28;20055;-79
2023/08/24 00:43:30;;;;;;;11.57;8.95;;;;;;;15.13;97.19;98841.75;4937815;28;20492;-77
2023/08/24 00:45:57;;;;;;;14.68;9.50;;;;;;;15.12;97.35;98837.38;4903834;28;20055;-78
2023/08/24 00:48:25;;;;;;;12.07;9.05;;;;;;;15.11;96.73;98842.91;4921109;28;20055;-78
2023/08/24 00:50:52;;;;;;;16.25;9.13;;;;;;;15.10;96.65;98838.53;4937954;28;20047;-75
2023/08/24 00:53:21;;;;;;;14.00;9.15;;;;;;;15.10;96.72;98831.34;4920437;28;20041;-74
2023/08/24 00:55:46;;;;;;;14.05;9.02;;;;;;;15.12;96.77;98839.25;4937397;28;20054;-73
2023/08/24 00:58:14;;;;;;;13.35;9.23;;;;;;;15.12;96.88;98833.88;4936031;28;20408;-75
2023/08/24 01:00:41;;;;;;;15.05;9.57;;;;;;;15.13;96.63;98851.63;4920165;28;20050;-73
2023/08/24 01:03:11;;;;;;;12.35;8.73;;;;;;;15.15;96.83;98828.16;4935760;28;20046;-72
2023/08/24 01:05:36;;;;;;;11.07;8.50;;;;;;;15.15;96.74;98828.16;4919921;28;20070;-73
2023/08/24 01:08:02;;;;;;;14.10;9.00;;;;;;;15.17;96.64;98834.22;4919261;28;20055;-72
2023/08/24 01:10:37;;;;;;;11.25;8.88;;;;;;;15.19;97.14;98840.28;4930938;28;20049;-73
2023/08/24 01:13:14;;;;;;;10.80;8.35;;;;;;;15.20;96.68;98836.59;4912418;28;20536;-71
2023/08/24 01:15:39;;;;;;;13.13;9.30;;;;;;;15.20;96.81;98826.69;4936039;28;20053;-72
2023/08/24 01:18:09;;;;;;;13.48;8.23;;;;;;;15.20;96.72;98853.56;4937070;28;20043;-75
2023/08/24 01:20:37;;;;;;;13.60;9.27;;;;;;;15.22;96.44;98839.97;4903190;28;20508;-74
2023/08/24 01:23:32;;;;;;;16.75;9.43;;;;;;;15.29;96.57;98857.13;4935757;28;20042;-74
2023/08/24 01:26:28;;;;;;;13.65;9.02;;;;;;;15.34;96.29;98838.69;4936661;28;20061;-74
2023/08/24 01:28:57;;;;;;;16.30;10.32;;;;;;;15.25;95.84;98839.63;4878032;29;20958;-74
2023/08/24 01:31:24;;;;;;;13.63;9.07;;;;;;;15.26;95.43;98846.69;4876952;29;20572;-75
2023/08/24 01:33:54;;;;;;;12.70;8.90;;;;;;;15.25;95.41;98842.31;4861247;29;20059;-73
2023/08/24 01:36:20;;;;;;;12.45;8.82;;;;;;;15.23;94.94;98836.28;4862350;29;20059;-74
2023/08/24 01:39:07;;;;;;;14.73;8.63;;;;;;;15.28;95.05;98839.31;4862623;29;20064;-71
2023/08/24 01:41:39;;;;;;;13.48;8.95;;;;;;;15.21;95.00;98816.81;4877940;29;20063;-70
2023/08/24 01:44:14;;;;;;;16.45;8.48;;;;;;;15.19;94.61;98834.91;4858390;29;20620;-75
2023/08/24 01:46:43;;;;;;;16.23;9.68;;;;;;;15.15;94.78;98845.13;4875260;29;20070;-69
2023/08/24 01:49:12;;;;;;;12.65;8.60;;;;;;;15.12;94.95;98845.41;4877799;29;20051;-72
2023/08/24 01:51:42;;;;;;;11.30;8.82;;;;;;;15.10;95.09;98830.50;4877942;29;20091;-76
2023/08/24 01:54:32;;;;;;;14.82;9.65;;;;;;;15.16;95.31;98835.22;4862326;29;20048;-76
2023/08/24 01:57:23;;;;;;;;;;;;;;;15.19;95.59;98835.75;4878480;29;20048;-76
2023/08/24 01:59:48;;;;;;;15.00;8.93;;;;;;;15.01;95.01;98842.19;4863406;29;19918;-76
2023/08/24 02:02:13;;;;;;;11.98;8.77;;;;;;;14.94;95.28;98827.69;4871598;29;20044;-74
2023/08/24 02:04:40;;;;;;;15.27;9.15;;;;;;;14.90;95.59;98819.94;4880091;28;20475;-75
2023/08/24 02:07:05;;;;;;;11.40;8.00;;;;;;;14.89;96.15;98812.06;4916732;28;20146;-74
2023/08/24 02:09:56;;;;;;;13.27;8.23;;;;;;;14.97;96.53;98825.53;4914818;28;20066;-75
2023/08/24 02:12:21;;;;;;;13.30;7.70;;;;;;;14.90;96.80;98830.69;4900648;28;20065;-74
2023/08/24 02:14:47;;;;;;;11.02;7.82;;;;;;;14.92;96.54;98843.09;4913068;28;20047;-74
2023/08/24 02:17:34;;;;;;;10.95;7.13;;;;;;;14.93;96.90;98856.38;4921255;28;20046;-74
2023/08/24 02:20:01;;;;;;;13.80;7.65;;;;;;;14.94;96.65;98833.06;4957104;28;20057;-75
2023/08/24 02:22:30;;;;;;;10.20;7.38;;;;;;;14.95;96.34;98826.69;4932533;28;20070;-76
2023/08/24 02:24:56;;;;;;;9.60;7.13;;;;;;;14.96;96.12;98834.59;4909057;29;20047;-77
2023/08/24 02:27:22;;;;;;;9.13;6.90;;;;;;;14.98;96.03;98842.50;4937456;28;20061;-77
2023/08/24 02:29:51;;;;;;;15.50;6.78;;;;;;;15.01;96.04;98859.09;4925911;29;20059;-77
2023/08/24 02:32:21;;;;;;;11.45;6.70;;;;;;;15.04;95.71;98833.78;4921227;28;20043;-77
2023/08/24 02:34:48;;;;;;;9.18;6.40;;;;;;;15.08;95.48;98844.06;4909845;28;20047;-76
2023/08/24 02:40:13;;;;;;;7.28;5.75;;;;;;;15.18;95.29;98843.97;4924280;28;20062;-79
2023/08/24 02:42:40;;;;;;;9.27;7.03;;;;;;;15.19;94.97;98857.22;4905521;29;20047;-79
2023/08/24 02:45:06;;;;;;;9.48;6.90;;;;;;;15.20;94.63;98841.97;4915855;29;20043;-78
2023/08/24 02:47:34;;;;;;;10.73;7.55;;;;;;;15.25;93.97;98840.47;4901693;28;20063;-77
2023/08/24 02:50:00;;;;;;;10.82;8.07;;;;;;;15.26;94.11;98836.78;4921786;28;20039;-79
2023/08/24 02:52:26;;;;;;;14.75;8.40;;;;;;;15.29;94.10;98849.06;4920519;29;20054;-78
2023/08/24 02:58:07;;;;;;;13.68;7.20;;;;;;;15.33;93.03;98853.13;4902045;29;20386;-78
2023/08/24 03:00:32;;;;;;;10.27;7.75;;;;;;;15.35;93.23;98872.59;4892535;29;20054;-77
2023/08/24 03:02:59;;;;;;;12.77;7.80;;;;;;;15.36;93.14;98835.81;4912194;28;20054;-77
2023/08/24 03:05:27;;;;;;;10.50;7.50;;;;;;;15.38;93.10;98850.78;4940032;28;20074;-78
2023/08/24 03:07:54;;;;;;;12.30;8.48;;;;;;;15.37;92.75;98837.50;4927626;28;20039;-75
2023/08/24 03:10:22;;;;;;;11.82;7.32;;;;;;;15.40;92.48;98846.09;4887868;29;20055;-75
2023/08/24 03:12:47;;;;;;;11.98;8.00;;;;;;;15.41;92.71;98871.97;4919125;29;20046;-75
2023/08/24 03:15:12;;;;;;;10.45;7.32;;;;;;;15.43;92.81;98843.09;4903172;29;20782;-75
2023/08/24 03:17:39;;;;;;;10.23;7.63;;;;;;;15.46;93.09;98839.28;4904212;29;20067;-76
2023/08/24 03:20:05;;;;;;;10.40;7.57;;;;;;;15.48;93.28;98845.28;4887858;29;20062;-75
2023/08/24 03:22:31;;;;;;;9.40;6.80;;;;;;;15.46;93.17;98841.94;4902215;29;20047;-73
2023/08/24 03:24:57;;;;;;;12.65;7.85;;;;;;;15.48;93.03;98838.09;4920686;29;20043;-75
2023/08/24 03:27:23;;;;;;;12.77;8.00;;;;;;;15.49;92.87;98852.34;4923467;29;20047;-76
2023/08/24 03:29:52;;;;;;;17.75;9.07;;;;;;;15.51;92.74;98855.72;4919002;29;20047;-74
2023/08/24 03:32:23;;;;;;;16.15;8.05;;;;;;;15.51;92.47;98850.34;4903551;29;20599;-75
2023/08/24 03:34:58;;;;;;;11.60;7.63;;;;;;;15.55;92.60;98851.75;4923639;28;20065;-74
2023/08/24 03:37:23;;;;;;;12.73;7.97;;;;;;;15.53;92.15;98853.72;4913275;28;20059;-74
2023/08/24 03:39:49;;;;;;;10.10;7.35;;;;;;;15.55;91.76;98855.28;4902729;29;20051;-75
2023/08/24 03:47:58;;;;;;;13.50;7.63;;;;;;;15.67;91.85;98865.75;4918600;29;20055;-76
2023/08/24 03:50:27;;;;;;;13.00;8.25;;;;;;;15.72;91.27;98869.63;4889432;29;20418;-77
2023/08/24 03:52:54;;;;;;;11.15;8.00;;;;;;;15.80;91.16;98866.97;4920575;29;20050;-77
2023/08/24 03:55:22;;;;;;;12.80;8.13;;;;;;;15.88;91.15;98871.56;4919831;29;20503;-77
2023/08/24 03:57:48;;;;;;;11.13;8.30;;;;;;;15.98;90.73;98854.28;4921441;29;20039;-78
2023/08/24 04:00:14;;;;;;;15.82;8.30;;;;;;;16.08;90.11;98864.06;4904250;29;20054;-78
2023/08/24 04:02:46;;;;;;;12.57;8.48;;;;;;;16.14;89.82;98853.47;4888465;29;20540;-75
2023/08/24 04:05:24;;;;;;;9.32;7.18;;;;;;;16.22;89.15;98852.69;4902901;29;20035;-74
2023/08/24 04:07:51;;;;;;;11.18;7.55;;;;;;;16.31;88.81;98855.22;4886295;29;20051;-75
2023/08/24 04:10:20;;;;;;;11.68;6.10;;;;;;;16.40;88.37;98857.91;4902617;29;20042;-74
2023/08/24 04:12:45;;;;;;;9.55;5.53;;;;;;;16.48;87.85;98855.25;4919662;29;20496;-74
2023/08/24 04:15:14;;;;;;;8.15;5.53;;;;;;;16.59;87.44;98873.78;4902001;29;20413;-73
2023/08/24 04:18:08;;;;;;;6.18;4.95;;;;;;;16.69;86.71;98867.25;4901599;29;20524;-74
2023/08/24 04:23:26;;;;;;;6.60;5.53;;;;;;;16.88;85.05;98859.84;4919486;29;20065;-76
2023/08/24 04:26:17;;;;;;;7.45;5.10;;;;;;;17.06;84.64;98858.66;4893675;29;20422;-76
2023/08/24 04:28:49;;;;;;;8.02;5.43;;;;;;;17.10;83.98;98866.38;4919410;29;20039;-76
2023/08/24 04:31:15;;;;;;;7.97;5.43;;;;;;;17.18;83.47;98869.91;4901469;29;20058;-76
2023/08/24 04:33:46;;;;;;;6.88;5.43;;;;;;;17.23;82.76;98861.34;4919526;29;20046;-77
2023/08/24 04:36:36;;;;;;;6.22;5.10;;;;;;;17.35;82.29;98870.75;4920384;29;20059;-77
2023/08/24 04:39:04;;;;;;;6.95;5.25;;;;;;;17.21;82.19;98863.34;4918726;29;20047;-76
2023/08/24 04:41:30;;;;;;;5.90;5.07;;;;;;;17.20;81.90;98883.22;4929050;28;20057;-76
2023/08/24 04:43:55;;;;;;;8.00;5.47;;;;;;;17.17;81.63;98862.00;4921062;28;20047;-77
2023/08/24 04:46:20;;;;;;;7.93;5.95;;;;;;;17.13;81.56;98866.06;4919572;29;20047;-76
2023/08/24 04:48:48;;;;;;;8.15;5.72;;;;;;;17.11;81.29;98873.47;4902123;28;20057;-75
2023/08/24 04:51:17;;;;;;;7.55;6.43;;;;;;;17.09;81.42;98860.16;4920129;29;20446;-77
2023/08/24 04:53:43;;;;;;;6.43;5.55;;;;;;;17.03;81.02;98885.94;4918455;29;20035;-76
2023/08/24 04:56:09;;;;;;;9.18;6.35;;;;;;;17.01;80.50;98873.66;4917931;29;20502;-76
2023/08/24 04:58:36;;;;;;;8.02;6.07;;;;;;;16.97;80.51;98867.75;4904802;29;20050;-74
2023/08/24 05:01:02;;;;;;;7.25;5.95;;;;;;;16.90;80.65;98860.53;4919374;29;20062;-75
2023/08/24 05:03:34;;;;;;;7.93;6.60;;;;;;;16.87;80.99;98867.06;4902019;29;20051;-76
2023/08/24 05:06:00;;;;;;;8.38;7.18;;;;;;;16.83;80.93;98898.03;4919820;29;20055;-75
2023/08/24 05:08:25;;;;;;;11.20;5.88;;;;;;;16.81;81.08;98869.63;4902315;29;20051;-75
2023/08/24 05:10:50;;;;;;;10.73;6.30;;;;;;;16.78;81.53;98875.31;4920463;29;20046;-75
2023/08/24 05:13:16;;;;;;;7.90;5.90;;;;;;;16.76;81.76;98878.19;4919636;29;20501;-76
2023/08/24 05:15:41;;;;;;;9.52;5.90;;;;;;;16.74;82.00;98882.88;4902940;29;20038;-77
2023/08/24 05:18:08;;;;;;;9.30;6.25;;;;;;;16.72;82.15;98889.44;4901593;29;20051;-76
2023/08/24 05:20:34;;;;;;;7.95;5.60;;;;;;;16.70;82.56;98870.78;4917914;29;20513;-76
2023/08/24 05:23:25;;;;;;;10.13;6.13;;;;;;;16.69;82.48;98880.72;4901664;29;20047;-77
2023/08/24 05:28:42;;;;;;;14.07;6.97;;;;;;;16.63;82.51;98864.38;4938398;28;20505;-76
2023/08/24 05:31:10;;;;;;;7.28;6.05;;;;;;;16.61;82.81;98858.28;4905542;28;20061;-76
2023/08/24 05:33:37;;;;;;;9.27;6.28;;;;;;;16.57;83.16;98859.63;4904927;28;20057;-77
2023/08/24 05:36:02;;;;;;;10.10;6.32;;;;;;;16.50;82.74;98815.56;4905036;28;20059;-78
2023/08/24 05:38:29;;;;;;;9.02;6.82;;;;;;;16.45;82.81;98869.88;4928723;28;20429;-78
2023/08/24 05:40:54;;;;;;;25.95;15.30;;;;;;;16.41;82.85;98867.66;4919112;28;20067;-77
2023/08/24 05:43:20;;;;;;;12.23;8.90;;;;;;;16.33;82.53;98869.34;4919163;28;20047;-76
2023/08/24 05:45:49;;;;;;;10.32;7.63;;;;;;;16.27;82.70;98859.22;4910847;29;20054;-77
2023/08/24 05:48:39;;;;;;;11.32;7.13;;;;;;;16.19;82.70;98888.81;4917352;29;20054;-77
2023/08/24 05:51:07;;;;;;;10.48;7.63;;;;;;;16.11;83.47;98869.97;4917406;29;20054;-75
2023/08/24 05:53:38;;;;;;;15.20;8.48;;;;;;;16.02;83.93;98870.09;4917462;29;20043;-75
2023/08/24 05:56:29;;;;;;;10.93;7.97;;;;;;;15.89;84.62;98867.88;4917469;29;20058;-74
2023/08/24 05:58:58;;;;;;;12.25;7.90;;;;;;;15.84;84.75;98883.63;4900398;29;20497;-75
2023/08/24 06:01:25;;;;;;;11.65;7.75;;;;;;;15.80;85.18;98841.97;4926727;28;20065;-75
2023/08/24 06:03:54;;;;;;;12.50;8.32;;;;;;;15.82;86.01;98875.72;4940276;28;20503;-74
2023/08/24 06:06:21;;;;;;;11.27;7.93;;;;;;;15.86;86.59;98876.25;4940566;28;20059;-74
2023/08/24 06:08:47;;;;;;;10.38;7.85;;;;;;;15.89;86.59;98879.47;4939186;28;20053;-74
2023/08/24 06:11:12;;;;;;;10.02;7.28;;;;;;;15.91;86.49;98879.31;4940593;28;20051;-80
2023/08/24 06:13:39;;;;;;;9.68;7.53;;;;;;;15.95;85.67;98894.94;4941713;28;20050;-80
2023/08/24 06:16:05;;;;;;;13.00;7.78;;;;;;;15.98;86.02;98886.56;4925937;28;20053;-81
2023/08/24 06:18:55;;;;;;;10.45;8.13;;;;;;;16.04;85.79;98884.19;4929411;28;20047;-77
2023/08/24 06:21:20;;;;;;;8.85;6.57;;;;;;;16.07;85.15;98889.25;4940612;28;20054;-76
2023/08/24 06:23:47;;;;;;;13.32;8.60;;;;;;;16.07;84.61;98890.09;4941566;28;20097;-78
2023/08/24 06:26:14;;;;;;;11.68;7.10;;;;;;;16.11;84.76;98902.22;4909039;28;20055;-78
2023/08/24 06:28:42;;;;;;;10.68;7.57;;;;;;;16.14;84.69;98899.19;4942874;28;20605;-80
2023/08/24 06:31:10;;;;;;;9.27;7.32;;;;;;;16.12;84.29;98890.47;4940812;28;20132;-76
2023/08/24 06:33:39;;;;;;;10.68;7.47;;;;;;;16.10;84.56;98895.16;4924023;28;20057;-78
2023/08/24 06:36:13;;;;;;;8.45;6.65;;;;;;;16.09;83.88;98898.00;4942086;28;20050;-76
2023/08/24 06:39:04;;;;;;;13.10;8.77;;;;;;;16.08;83.63;98870.28;4905199;29;20502;-73
2023/08/24 06:41:36;;;;;;;10.35;7.53;;;;;;;16.07;83.60;98922.38;4922077;29;20057;-74
2023/08/24 06:44:06;;;;;;;11.95;9.82;;;;;;;16.01;83.57;98916.81;4920125;29;20066;-73
2023/08/24 06:46:33;;;;;;;14.68;10.85;;;;;;;16.01;83.36;98911.44;4920874;29;20059;-73
2023/08/24 06:48:58;;;;;;;20.95;11.40;;;;;;;15.93;83.19;98931.88;4888083;29;20058;-74
2023/08/24 06:51:27;;;;;;;16.60;10.85;;;;;;;15.90;83.47;98866.88;4904063;29;20066;-74
2023/08/24 06:53:54;;;;;;;17.30;12.57;;;;;;;15.81;83.46;98900.06;4903862;29;20054;-74
2023/08/24 06:56:44;;;;;;;17.02;11.88;;;;;;;15.86;83.70;98921.94;4903599;29;20051;-74
2023/08/24 06:59:13;;;;;;;18.60;12.23;;;;;;;15.67;83.42;98931.09;4903495;29;20051;-74
2023/08/24 07:01:40;;;;;;;15.13;12.10;;;;;;;15.65;83.17;98927.72;4903414;29;20047;-74
2023/08/24 07:04:08;;;;;;;21.52;14.68;;;;;;;15.60;83.57;98951.53;4920556;29;20035;-74
2023/08/24 07:06:37;;;;;;;15.57;12.65;;;;;;;15.56;84.07;98936.75;4920034;29;20059;-76
2023/08/24 07:09:06;;;;;;;20.48;13.05;;;;;;;15.51;83.66;98937.16;4903570;29;20635;-76
2023/08/24 07:11:32;;;;;;;18.33;13.00;;;;;;;15.45;83.76;98937.81;4902262;29;20051;-75
2023/08/24 07:13:58;;;;;;;15.32;12.63;;;;;;;15.43;83.32;98939.81;4919863;28;20055;-76
2023/08/24 07:16:29;;;;;;;15.95;12.07;;;;;;;15.37;83.57;98942.25;4920071;29;20058;-75
2023/08/24 07:18:56;;;;;;;17.13;14.35;;;;;;;15.27;83.76;98955.78;4919264;29;20054;-75
2023/08/24 07:21:25;;;;;;;18.73;13.93;;;;;;;15.24;83.69;98946.19;4913389;29;20071;-74
2023/08/24 07:23:53;;;;;;;22.15;14.48;;;;;;;15.15;83.51;98935.56;4938997;29;20047;-73
2023/08/24 07:26:22;;;;;;;22.73;16.48;;;;;;;15.02;83.85;98956.56;4923123;29;20074;-75
2023/08/24 07:28:47;;;;;;;21.70;17.38;;;;;;;14.88;84.54;98945.41;4924803;29;20035;-75
2023/08/24 07:31:14;;;;;;;23.92;17.60;;;;;;;14.78;84.86;98955.38;4910426;29;20035;-77
2023/08/24 07:36:40;;;;;;;21.20;17.25;;;;;;;14.47;85.75;98954.03;4928878;28;20039;-76
2023/08/24 07:39:34;;;;;;;18.48;15.48;;;;;;;14.45;87.57;98948.81;4947232;28;20061;-77
2023/08/24 07:42:02;;;;;;;22.27;15.40;;;;;;;14.35;87.68;98955.19;4924701;28;20074;-75
2023/08/24 07:44:28;;;;;;;18.50;14.63;;;;;;;14.34;87.77;98962.41;4923182;28;20057;-76
2023/08/24 07:46:53;;;;;;;23.70;15.27;;;;;;;14.34;88.25;98966.91;4922820;28;20525;-76
2023/08/24 07:49:44;;;;;;;17.30;13.75;;;;;;;14.41;89.45;98974.25;4906290;28;20051;-77
2023/08/24 07:52:11;;;;;;;16.05;12.70;;;;;;;14.37;89.07;98969.31;4925678;28;20061;-75
2023/08/24 07:54:37;;;;;;;18.40;14.25;;;;;;;14.36;89.59;98965.78;4941589;28;20062;-76
2023/08/24 07:57:04;;;;;;;17.23;12.98;;;;;;;14.42;89.16;98969.75;4941788;28;20061;-76
2023/08/24 07:59:31;;;;;;;17.10;14.95;;;;;;;14.45;88.91;98964.06;4939488;28;20051;-76
2023/08/24 08:02:02;;;;;;;18.92;13.13;;;;;;;14.45;89.33;98966.75;4939499;28;20520;-76
2023/08/24 08:04:59;;;;;;;16.55;12.63;;;;;;;14.55;88.73;98980.13;4940464;28;20050;-78
2023/08/24 08:10:22;;;;;;;15.00;12.20;;;;;;;14.55;88.54;98980.13;4940848;28;20046;-77
2023/08/24 08:12:48;;;;;;;15.65;12.25;;;;;;;14.58;88.83;98977.09;4939044;28;20047;-76
2023/08/24 08:15:14;;;;;;;15.48;13.23;;;;;;;14.72;88.21;98972.06;4920973;28;20057;-76
2023/08/24 08:17:39;;;;;;;19.85;12.80;;;;;;;14.68;88.04;98976.03;4939423;28;20050;-76
2023/08/24 08:20:06;;;;;;;15.77;13.05;;;;;;;14.68;88.35;98980.56;4922353;28;20047;-75
2023/08/24 08:22:38;;;;;;;18.15;12.57;;;;;;;14.71;88.07;98975.75;4905545;28;20058;-76
2023/08/24 08:25:06;;;;;;;16.75;13.07;;;;;;;14.76;87.41;98983.34;4921926;28;20038;-75
2023/08/24 08:27:33;;;;;;;16.00;13.73;;;;;;;14.71;86.90;98975.75;4930027;28;20050;-76
2023/08/24 08:30:26;;;;;;;28.88;16.55;;;;;;;14.78;86.70;98987.59;4921079;28;20062;-76
2023/08/24 08:32:55;;;;;;;21.85;16.75;;;;;;;14.73;86.35;98989.03;4939239;28;20055;-76
2023/08/24 08:35:23;;;;;;;22.13;17.02;;;;;;;14.74;86.40;98991.56;4939780;28;20043;-75
2023/08/24 08:40:47;;;;;;;18.42;16.17;;;;;;;14.87;86.05;98985.81;4902190;29;20051;-75
2023/08/24 08:43:13;;;;;;;21.52;15.35;;;;;;;14.93;85.55;98989.72;4920617;29;20060;-76
2023/08/24 08:45:40;;;;;;;20.60;15.10;;;;;;;14.96;85.93;98989.41;4919428;29;20042;-76
2023/08/24 08:48:32;;;;;;;19.10;13.32;;;;;;;15.18;85.64;98979.06;4891651;29;20426;-80
2023/08/24 08:53:48;;;;;;;18.90;14.73;;;;;;;15.16;85.17;98975.69;4901725;29;20418;-74
2023/08/24 08:56:41;;;;;;;17.40;13.52;;;;;;;15.34;84.92;98983.72;4917773;29;20058;-73
2023/08/24 08:59:08;;;;;;;18.35;13.50;;;;;;;15.36;84.46;98975.47;4902402;29;20047;-74
2023/08/24 09:01:37;;;;;;;18.95;13.55;;;;;;;15.34;84.17;98978.34;4886925;29;20055;-75
2023/08/24 09:04:33;;;;;;;18.80;12.43;;;;;;;15.42;83.82;98981.09;4919372;29;20046;-73
2023/08/24 09:07:07;;;;;;;15.48;13.07;;;;;;;15.47;84.37;98968.03;4906693;29;20047;-75
2023/08/24 09:09:38;;;;;;;;;;;;;;;15.75;84.02;98975.97;4922182;29;20405;-75
2023/08/24 09:12:06;;;;;;;16.40;12.95;;;;;;;15.77;83.48;98969.44;4903520;29;19929;-73
2023/08/24 09:14:35;;;;;;;19.70;12.25;;;;;;;15.89;82.87;98981.63;4918887;29;20046;-73
2023/08/24 09:17:05;;;;;;;15.38;13.57;;;;;;;15.93;82.47;98982.97;4919918;29;20058;-77
2023/08/24 09:19:38;;;;;;;15.77;13.05;;;;;;;15.95;82.14;98993.56;4920683;29;20039;-76
2023/08/24 09:22:08;;;;;;;17.15;13.18;;;;;;;15.93;81.67;99007.16;4902924;29;20047;-78
2023/08/24 09:25:26;;;;;;;17.80;12.68;;;;;;;16.06;82.08;98989.75;4913275;28;20046;-77
2023/08/24 09:30:57;;;;;;;17.50;13.10;;;;;;;15.90;82.36;98996.75;4921030;29;20050;-84
2023/08/24 09:34:14;;;;;;;14.75;11.85;;;;;;;15.97;81.81;98988.88;4903557;29;20051;-81
2023/08/24 09:36:44;;;;;;;16.83;12.70;;;;;;;15.88;81.78;98993.38;4908345;28;20078;-81
2023/08/24 09:39:16;;;;;;;17.90;12.98;;;;;;;15.90;81.74;98990.53;4885397;29;20541;-82
2023/08/24 09:42:07;;;;;;;16.67;12.55;;;;;;;16.02;81.81;99000.00;4892103;29;20062;-81
2023/08/24 09:44:35;;;;;;;17.27;13.82;;;;;;;15.89;81.59;98999.59;4906928;29;20047;-79
2023/08/24 09:47:01;;;;;;;16.63;13.95;;;;;;;15.86;81.01;99010.66;4910143;28;20047;-76
2023/08/24 09:49:31;;;;;;;23.33;15.55;;;;;;;15.74;80.77;98993.94;4912266;28;20433;-77
2023/08/24 09:52:01;;;;;;;22.13;15.38;;;;;;;15.69;80.68;98993.56;4946037;28;20051;-78
2023/08/24 09:54:31;;;;;;;18.63;16.52;;;;;;;15.64;80.37;98993.19;4929252;28;20047;-81
2023/08/24 09:56:59;;;;;;;18.17;14.25;;;;;;;15.57;80.73;99006.44;4941433;28;20395;-80
2023/08/24 10:02:23;;;;;;;18.30;13.80;;;;;;;15.53;80.99;99004.19;4928150;28;20405;-81
2023/08/24 10:04:52;;;;;;;18.00;12.93;;;;;;;15.52;80.90;99002.47;4927767;28;20050;-78
2023/08/24 10:10:15;;;;;;;18.73;12.38;;;;;;;15.59;80.94;99009.78;4945422;28;20058;-74
2023/08/24 10:12:47;;;;;;;15.55;12.18;;;;;;;15.69;80.37;99000.81;4915332;28;20059;-77
2023/08/24 10:15:16;;;;;;;19.58;13.23;;;;;;;15.78;80.17;99007.91;4925129;29;20430;-77
2023/08/24 10:17:45;;;;;;;16.02;12.45;;;;;;;15.89;79.64;98984.31;4921772;28;20108;-77
2023/08/24 10:20:35;;;;;;;16.77;12.98;;;;;;;15.98;78.92;99007.53;4899429;28;20059;-77
2023/08/24 10:23:04;;;;;;;17.88;12.70;;;;;;;16.06;78.63;99005.88;4937034;28;20047;-77
2023/08/24 10:26:19;;;;;;;14.65;11.32;;;;;;;16.18;78.83;99004.59;4907447;29;20054;-79
2023/08/24 10:28:45;;;;;;;13.75;11.23;;;;;;;16.12;78.81;98960.38;4925574;28;20051;-78
2023/08/24 10:31:12;;;;;;;17.13;12.35;;;;;;;16.13;78.50;99012.31;4912052;28;20560;-79
2023/08/24 10:33:41;;;;;;;16.70;13.05;;;;;;;16.14;78.03;99006.75;4936925;28;20050;-79
2023/08/24 10:36:07;;;;;;;19.02;14.00;;;;;;;16.07;77.68;99007.56;4908285;29;20071;-77
2023/08/24 10:38:39;;;;;;;18.02;12.63;;;;;;;16.08;77.85;98998.50;4925914;28;20054;-79
2023/08/24 10:41:05;;;;;;;19.63;13.13;;;;;;;16.05;77.74;99026.56;4892975;29;20059;-78
2023/08/24 10:43:37;;;;;;;17.40;12.60;;;;;;;16.10;77.56;99010.78;4909107;29;20054;-78
2023/08/24 10:46:12;;;;;;;14.70;11.20;;;;;;;16.18;77.82;99005.44;4890335;29;20039;-78
2023/08/24 10:48:44;;;;;;;13.02;10.95;;;;;;;16.26;77.42;99004.63;4922419;29;20063;-79
2023/08/24 10:51:29;;;;;;;14.60;11.07;;;;;;;16.42;77.49;99002.03;4886090;29;20048;-72
2023/08/24 10:53:59;;;;;;;12.45;10.55;;;;;;;16.70;77.06;98999.97;4924518;29;20055;-72
2023/08/24 10:56:30;;;;;;;15.23;11.00;;;;;;;17.03;76.16;98996.34;4903789;29;20043;-72
2023/08/24 10:59:16;;;;;;;15.30;10.63;;;;;;;17.34;74.66;99004.63;4887776;29;20851;-71
2023/08/24 11:01:53;;;;;;;13.32;9.25;;;;;;;17.36;73.97;99002.59;4902485;29;20066;-71
2023/08/24 11:04:21;;;;;;;16.50;10.25;;;;;;;17.42;73.21;99001.06;4905232;28;20042;-73
2023/08/24 11:07:02;;;;;;;14.00;9.38;;;;;;;17.53;72.61;99008.81;4893800;29;20046;-74
2023/08/24 11:13:05;;;;;;;13.85;9.18;;;;;;;17.42;72.31;99001.91;4899135;29;20528;-74
2023/08/24 11:15:34;;;;;;;;;;;;;;;17.53;73.48;99002.56;4905820;28;20046;-72
2023/08/24 11:18:19;;;;;;;14.07;8.68;;;;;;;17.39;72.82;99022.94;4916668;29;19918;-72
2023/08/24 11:20:50;;;;;;;11.45;8.48;;;;;;;17.25;72.88;99037.09;4920987;28;20046;-73
2023/08/24 11:23:16;;;;;;;11.20;8.27;;;;;;;17.15;73.23;99004.94;4921182;28;20386;-73
2023/08/24 11:25:42;;;;;;;12.20;8.82;;;;;;;17.05;72.45;99037.41;4921947;28;20066;-72
2023/08/24 11:28:07;;;;;;;11.98;8.70;;;;;;;16.98;72.34;99014.84;4905394;28;20047;-73
2023/08/24 11:30:33;;;;;;;10.95;8.35;;;;;;;16.84;72.49;99028.94;4907175;28;20065;-74
2023/08/24 11:32:59;;;;;;;12.70;8.07;;;;;;;16.77;72.59;99019.84;4904721;29;20082;-72
2023/08/24 11:35:24;;;;;;;15.45;8.98;;;;;;;16.67;72.81;99008.38;4918121;29;20035;-73
2023/08/24 11:37:54;;;;;;;15.63;8.70;;;;;;;16.61;73.00;99011.66;4889884;29;20050;-73
2023/08/24 11:40:20;;;;;;;16.33;9.05;;;;;;;16.46;73.19;99024.94;4904528;29;20055;-71
2023/08/24 11:42:53;;;;;;;14.73;8.75;;;;;;;16.44;73.70;99020.69;4919100;28;20054;-71
2023/08/24 11:45:18;;;;;;;17.35;8.55;;;;;;;16.37;74.37;99014.25;4899342;28;20043;-73
2023/08/24 11:47:44;;;;;;;12.82;8.20;;;;;;;16.34;74.40;99031.59;4867461;29;20063;-72
2023/08/24 11:50:09;;;;;;;10.52;7.78;;;;;;;16.32;74.47;99012.91;4898904;29;20051;-73
2023/08/24 11:52:44;;;;;;;12.23;7.70;;;;;;;16.37;74.77;99030.41;4901327;29;20062;-72
2023/08/24 11:55:11;;;;;;;11.85;7.63;;;;;;;16.34;74.68;99021.69;4917589;29;20523;-72
2023/08/24 11:57:37;;;;;;;11.70;7.35;;;;;;;16.36;74.71;99024.22;4918739;29;20054;-72
2023/08/24 12:00:04;;;;;;;12.55;6.70;;;;;;;16.38;74.75;99021.34;4913944;28;20101;-73
2023/08/24 12:02:34;;;;;;;10.25;6.75;;;;;;;16.40;74.25;99020.16;4904991;28;20047;-71
2023/08/24 12:05:01;;;;;;;11.43;5.95;;;;;;;16.42;74.20;99037.00;4884430;29;20047;-72
2023/08/24 12:07:27;;;;;;;10.10;5.93;;;;;;;16.46;74.20;99014.16;4877692;29;20510;-71
2023/08/24 12:09:54;;;;;;;7.75;6.10;;;;;;;16.50;74.30;99017.34;4913301;29;20059;-72
2023/08/24 12:12:20;;;;;;;8.38;5.47;;;;;;;16.54;73.89;99032.19;4884156;29;20058;-69
2023/08/24 12:14:47;;;;;;;8.35;5.93;;;;;;;16.58;74.04;99025.47;4886759;29;20074;-72
2023/08/24 12:17:15;;;;;;;9.60;5.55;;;;;;;16.59;74.49;99019.09;4919906;29;20046;-72
2023/08/24 12:19:43;;;;;;;9.75;5.85;;;;;;;16.60;74.74;99032.34;4893341;29;20035;-72
2023/08/24 12:22:16;;;;;;;12.43;5.60;;;;;;;16.64;74.63;99027.53;4923695;29;20047;-72